Terminal Aerodrome Forecast
Issued by NWS Wakefield, VA

Home | Current Version | Previous Version | Text Only | Print | Product List | Glossary On
Versions: 1 2 3 4 5 6 7 8 9 10 11 12 13 14 15 16 17 18
000
FTUS41 KAKQ 231700
TAFECG
TAF
KECG 231737Z 2318/2418 30016G22KT P6SM SKC
     FM232200 32012KT P6SM SKC
     FM241400 31010G15KT P6SM FEW200=

USA.gov is the U.S. government's official web portal to all federal, state and local government web resources and services.